Meath Environmental Platform

Observations for Trim Patrick St

Time AQI Temp °C Hum % Pres Pa CO μg/m³ H₂S μg/m³ NO μg/m³ NO₂ μg/m³ O₃ μg/m³ SO₂ μg/m³ PM1 μg/m³ PM2.5 μg/m³ PM10 μg/m³
Sunday 9 August 2026
05:45 2 18.3 70 89,966 0.06 4.14 2.03 14.16 38.45 1.03 4.57 8.79 9.67
05:44 2 18.4 70 89,414 0.06 4.27 1.97 26.93 39.43 0.3 5.43 9.51 10.46
05:43 2 18.4 70 88,548 0.06 2.75 1.95 13.6 39.08 0.98 5.43 9.52 10.47
05:42 2 18.4 70 88,067 0.04 3.2 1.98 14.26 45.09 0.87 4.57 8.79 9.67
05:41 2 18.4 69 87,400 0.06 3.59 2.01 18.21 41.57 0.96 6.29 10.26 11.29
05:40 2 18.4 69 86,838 0.06 3.12 2.14 15.19 39.22 0.6 4.57 9.55 10.51
05:39 2 18.4 69 86,468 0.07 4.51 2.04 19.36 41.91 0.55 6.29 9.52 10.48
05:37 2 18.4 69 85,593 0.06 2.39 2.01 16.6 34.84 0.49 6.29 10.25 11.28
05:36 2 18.4 69 85,317 0.06 3.17 2.04 13.62 50.45 1.23 5.43 10.25 11.27
05:35 2 18.4 69 85,136 0.06 2.1 1.97 12.88 36.33 0.87 5.43 9.53 10.48
05:34 2 18.4 69 84,830 0.06 2.18 1.95 24.1 37.79 0 6.29 11.01 12.11
05:33 2 18.4 69 84,562 0.06 2.28 1.95 12.56 44.03 0.9 4.57 9.53 10.48
05:32 2 18.5 69 84,423 0.05 3.25 1.74 15.4 36.65 0.85 6.29 11.72 12.9
05:31 2 18.5 69 84,216 0.06 3.41 1.96 22.29 48.28 0.47 6.29 9.53 10.48
05:30 2 18.4 69 84,073 0.06 2.75 1.99 13.97 40.4 0.84 5.43 10.98 12.08
05:29 2 18.5 69 83,918 0.05 2.54 2 14.04 44.53 0.77 5.43 9.54 10.49
05:27 2 18.5 69 83,607 0.04 2.51 2.1 18.58 47 0.88 6.29 10.29 11.31
05:26 2 18.5 69 83,390 0.04 2.07 2.09 14.68 37.75 0.44 5.43 9.58 10.53
05:25 2 18.5 69 83,099 0.03 2.46 2.13 14.66 47.04 0.11 5.43 9.56 10.52
05:24 2 18.5 69 82,876 0.05 2.28 2.16 17.81 39.66 0.53 6.29 10.29 11.31